Wilmington, OH

12:34 AM EDT on July 30, 2016 (GMT -0400)
2.2 N Wilmington | | Change Station

Elev 1053 ft 39.47 °N, 83.84 °W | Updated 12 minutes ago

Mostly Cloudy
Mostly Cloudy
68.6 °F
Feels Like 68.6 °F
N
0.0
Wind Variable Wind from SSW
Gusts 0.0 mph

Today
High -- | Low -- °F
--% Chance of Precip.
Yesterday
High -- | Low -- °F
Precip. -- in
Pressure 29.93 in
Visibility 9.0 miles
Clouds Few 4400 ft
Mostly Cloudy 11000 ft
Dew Point 68 °F
Humidity 96%
Rainfall 0.00 in
Snow Depth Not available.
6:33 AM 8:49 PM
Waning Crescent, 16% visible
METAR KILN 300354Z AUTO 18003KT 9SM FEW044 BKN110 21/20 A2995 RMK AO2 SLP133 T02060200
Pressure 29.93 in
Visibility 9.0 miles
Clouds Few 4400 ft
Mostly Cloudy 11000 ft
Dew Point 68 °F
Humidity 96%
Rainfall 0.00 in
Snow Depth Not available.
6:33 AM 8:49 PM
Waning Crescent, 16% visible
METAR KILN 300354Z AUTO 18003KT 9SM FEW044 BKN110 21/20 A2995 RMK AO2 SLP133 T02060200

10-Day Weather Forecast

Almanac

Astronomy

Jul. 30, 2016 Rise Set
Actual Time
Civil Twilight
Nautical Twilight
Astronomical Twilight
Moon
Length of Visible Light
Length of Day
Tomorrow will be .
, % of the Moon is Illuminated

Today's Extremes

State Highs State Lows

Community

WunderPhotos

Upload Photos

1,928,506 photos uploaded!

WunderBlog® & News

Nearby

Air Quality

  Air Quality AQ Index Pollutant
Not available.

Snow Depth

Station Depth Elevation

Earthquake Activity

City Distance Mag. Time & Date
Minimum magnitude displayed is 2.5.

Coastal Water Temperatures

Place Temperature

Stations

Nearby Weather Stations

Station Location Temp. Windchill Dew Point Humidity Wind Precip. Elev Updated Type
                   

Watches & Warnings

There are currently no watches in effect.